Terminal Aerodrome Forecast
Issued by NWS

Home | Current Version | Previous Version | Text Only | Print | Product List | Glossary On
Versions: 1 2 3 4 5 6 7 8 9 10 11 12 13 14 15 16 17 18 19 20
000
FTUS44 KLZK 271100
TAFBPK
TAF
KBPK 271132Z 2712/2812 17006KT P6SM VCTS SCT050CB BKN100 OVC250
     FM271400 22005KT P6SM VCSH SCT035 SCT100 BKN250
     FM271800 23009KT P6SM VCTS SCT035CB SCT100 BKN250
     FM280100 18006KT P6SM VCSH SCT030 BKN100 OVC250=

USA.gov is the U.S. government's official web portal to all federal, state and local government web resources and services.